createdAt,value
2016-03-16T00:00:32.653Z,3.41
2016-03-16T00:01:32.656Z,3.44
2016-03-16T00:02:32.675Z,3.42
2016-03-16T00:03:32.677Z,3.5
2016-03-16T00:04:32.695Z,3.47
2016-03-16T00:05:32.713Z,3.36
2016-03-16T00:06:32.716Z,3.48
2016-03-16T00:07:32.733Z,3.42
2016-03-16T00:08:32.752Z,3.47
2016-03-16T00:09:32.771Z,3.47
2016-03-16T00:10:32.789Z,3.5
2016-03-16T00:11:32.777Z,3.44
2016-03-16T00:12:32.810Z,3.48
2016-03-16T00:13:32.813Z,3.63
2016-03-16T00:14:32.832Z,3.55
2016-03-16T00:15:32.835Z,3.6
2016-03-16T00:16:32.883Z,3.62
2016-03-16T00:17:32.855Z,3.68
2016-03-16T00:18:32.873Z,3.65
2016-03-16T00:19:32.882Z,3.63
2016-03-16T00:20:32.873Z,3.66
2016-03-16T00:21:32.738Z,3.58
2016-03-16T00:22:33.058Z,3.63
2016-03-16T00:23:32.892Z,3.62
2016-03-16T00:24:32.889Z,3.62
2016-03-16T00:25:32.903Z,3.65
2016-03-16T00:26:32.886Z,3.69
2016-03-16T00:27:32.916Z,3.66
2016-03-16T00:28:32.915Z,3.66
2016-03-16T00:29:32.946Z,3.73
2016-03-16T00:30:32.951Z,3.69
2016-03-16T00:31:32.967Z,3.73
2016-03-16T00:32:32.954Z,3.77
2016-03-16T00:33:32.985Z,3.69
2016-03-16T00:34:33.004Z,3.74
2016-03-16T00:35:33.006Z,3.8
2016-03-16T00:36:33.055Z,3.8
2016-03-16T00:37:33.042Z,3.8
2016-03-16T00:38:33.059Z,3.86
2016-03-16T00:39:33.061Z,3.87
2016-03-16T00:40:33.080Z,3.86
2016-03-16T00:41:33.098Z,3.86
2016-03-16T00:42:33.131Z,3.84
2016-03-16T00:43:33.103Z,3.81
2016-03-16T00:44:33.167Z,3.83
2016-03-16T00:45:33.123Z,3.84
2016-03-16T00:46:33.203Z,3.86
2016-03-16T00:47:33.160Z,3.81
2016-03-16T00:48:33.194Z,3.83
2016-03-16T00:49:33.181Z,3.91
2016-03-16T00:50:33.246Z,3.86
2016-03-16T00:51:33.202Z,3.84
2016-03-16T00:52:33.220Z,3.87
2016-03-16T00:53:33.222Z,3.83
2016-03-16T00:54:33.257Z,3.92
2016-03-16T00:55:33.260Z,3.88
2016-03-16T00:56:33.277Z,3.88
2016-03-16T00:57:33.296Z,3.87
2016-03-16T00:58:33.300Z,3.92
2016-03-16T00:59:33.333Z,3.94
2016-03-16T01:00:33.321Z,3.92
2016-03-16T01:01:33.338Z,3.99
2016-03-16T01:02:33.357Z,3.95
2016-03-16T01:03:33.360Z,3.87
2016-03-16T01:04:33.378Z,3.94
2016-03-16T01:05:33.380Z,3.96
2016-03-16T01:06:33.258Z,3.95
2016-03-16T01:07:33.421Z,4.05
2016-03-16T01:08:33.424Z,4.02
2016-03-16T01:09:33.457Z,4.05
2016-03-16T01:10:33.459Z,3.96
2016-03-16T01:11:33.462Z,3.98
2016-03-16T01:12:33.480Z,3.96
2016-03-16T01:13:33.503Z,4.04
2016-03-16T01:14:33.506Z,4.02
2016-03-16T01:15:33.509Z,3.98
2016-03-16T01:16:33.542Z,4.01
2016-03-16T01:17:33.577Z,4.04
2016-03-16T01:18:33.564Z,3.96
2016-03-16T01:19:33.582Z,3.99
2016-03-16T01:20:33.584Z,4.01
2016-03-16T01:21:33.635Z,4.04
2016-03-16T01:22:33.637Z,4.04
2016-03-16T01:23:33.640Z,4.04
2016-03-16T01:24:33.643Z,3.99
2016-03-16T01:25:33.645Z,4.04
2016-03-16T01:26:33.680Z,4.02
2016-03-16T01:27:33.683Z,4.01
2016-03-16T01:28:33.700Z,4.06
2016-03-16T01:29:33.703Z,4.04
2016-03-16T01:30:33.721Z,4.04
2016-03-16T01:31:33.724Z,4.02
2016-03-16T01:32:33.742Z,4.05
2016-03-16T01:33:33.745Z,4.02
2016-03-16T01:34:33.763Z,4.05
2016-03-16T01:35:33.782Z,4.13
2016-03-16T01:36:33.847Z,4.04
2016-03-16T01:37:33.803Z,4.13
2016-03-16T01:38:33.837Z,4.12
2016-03-16T01:39:33.840Z,4.12
2016-03-16T01:40:33.843Z,4.02
2016-03-16T01:41:33.860Z,4.08
2016-03-16T01:42:33.879Z,4.13
2016-03-16T01:43:33.896Z,4.16
2016-03-16T01:44:33.962Z,4.01
2016-03-16T01:45:33.934Z,4.05
2016-03-16T01:46:33.951Z,4.13
2016-03-16T01:47:33.939Z,4.13
2016-03-16T01:48:34.004Z,4.17
2016-03-16T01:49:33.960Z,4.06
2016-03-16T01:50:34.056Z,4.06
2016-03-16T01:51:33.997Z,4.02
2016-03-16T01:52:34.046Z,4.05
2016-03-16T01:53:34.018Z,4.08
2016-03-16T01:54:34.067Z,4.06
2016-03-16T01:55:34.023Z,4.05
2016-03-16T01:56:34.104Z,4.02
2016-03-16T01:57:34.076Z,4.05
2016-03-16T01:58:34.125Z,4.04
2016-03-16T01:59:34.097Z,4.04
2016-03-16T02:00:34.162Z,4.13
2016-03-16T02:01:34.133Z,4.05
2016-03-16T02:02:34.152Z,4.05
2016-03-16T02:03:34.139Z,4.08
2016-03-16T02:04:34.172Z,4.04
2016-03-16T02:05:34.191Z,4.17
2016-03-16T02:06:34.209Z,4.17
2016-03-16T02:07:34.211Z,4.17
2016-03-16T02:08:34.214Z,4.14
2016-03-16T02:09:34.232Z,4.17
2016-03-16T02:10:34.250Z,4.17
2016-03-16T02:11:34.237Z,4.17
2016-03-16T02:12:34.256Z,4.08
2016-03-16T02:13:34.259Z,4.17
2016-03-16T02:14:34.292Z,4.13
2016-03-16T02:15:34.310Z,4.17
2016-03-16T02:16:34.329Z,4.13
2016-03-16T02:17:34.316Z,4.1
2016-03-16T02:18:34.350Z,4.14
2016-03-16T02:19:34.352Z,4.16
2016-03-16T02:20:34.372Z,4.14
2016-03-16T02:21:34.374Z,4.16
2016-03-16T02:22:34.409Z,4.04
2016-03-16T02:23:34.395Z,4.06
2016-03-16T02:24:34.429Z,4.13
2016-03-16T02:25:34.432Z,4.12
2016-03-16T02:26:34.434Z,4.12
2016-03-16T02:27:34.469Z,4.14
2016-03-16T02:28:34.471Z,4.22
2016-03-16T02:29:34.490Z,4.17
2016-03-16T02:30:34.492Z,4.14
2016-03-16T02:31:34.511Z,4.13
2016-03-16T02:32:34.529Z,4.02
2016-03-16T02:33:34.563Z,4.08
2016-03-16T02:34:34.550Z,4.05
2016-03-16T02:35:34.584Z,4.04
2016-03-16T02:36:34.587Z,4.08
2016-03-16T02:37:34.605Z,4.05
2016-03-16T02:38:34.608Z,4.13
2016-03-16T02:39:34.626Z,4.06
2016-03-16T02:40:34.629Z,4.05
2016-03-16T02:41:34.647Z,4.08
2016-03-16T02:42:34.635Z,4.08
2016-03-16T02:43:34.668Z,4.08
2016-03-16T02:44:34.702Z,4.02
2016-03-16T02:45:34.704Z,4.04
2016-03-16T02:46:34.707Z,4.04
2016-03-16T02:47:34.725Z,4.01
2016-03-16T02:48:34.729Z,4.01
2016-03-16T02:49:34.762Z,4.01
2016-03-16T02:50:33.999Z,4.01
2016-03-16T02:51:34.783Z,4.01
2016-03-16T02:52:34.786Z,4.02
2016-03-16T02:53:34.804Z,4.01
2016-03-16T02:54:34.807Z,3.96
2016-03-16T02:55:34.841Z,4.02
2016-03-16T02:56:34.843Z,3.99
2016-03-16T02:57:34.878Z,4.04
2016-03-16T02:58:34.895Z,4.02
2016-03-16T02:59:34.867Z,3.99
2016-03-16T03:00:34.886Z,4.01
2016-03-16T03:01:34.920Z,4.05
2016-03-16T03:02:34.953Z,4.05
2016-03-16T03:03:34.924Z,4.02
2016-03-16T03:04:34.958Z,4.02
2016-03-16T03:05:34.946Z,4.01
2016-03-16T03:06:34.980Z,4.05
2016-03-16T03:07:34.982Z,4.04
2016-03-16T03:08:34.985Z,4.05
2016-03-16T03:09:35.003Z,4.01
2016-03-16T03:10:35.022Z,4.04
2016-03-16T03:11:35.024Z,4.02
2016-03-16T03:12:35.043Z,4.01
2016-03-16T03:13:35.061Z,4.06
2016-03-16T03:14:35.064Z,4.04
2016-03-16T03:15:35.082Z,4.02
2016-03-16T03:16:35.100Z,4.13
2016-03-16T03:17:35.119Z,4.06
2016-03-16T03:18:35.121Z,4.08
2016-03-16T03:19:35.140Z,4.16
2016-03-16T03:20:35.143Z,4.22
2016-03-16T03:21:35.176Z,4.14
2016-03-16T03:22:35.179Z,4.08
2016-03-16T03:23:35.213Z,4.14
2016-03-16T03:24:35.184Z,4.13
2016-03-16T03:25:35.218Z,4.14
2016-03-16T03:26:35.221Z,4.1
2016-03-16T03:27:35.255Z,4.12
2016-03-16T03:28:35.258Z,4.14
2016-03-16T03:29:35.261Z,4.13
2016-03-16T03:30:35.279Z,4.17
2016-03-16T03:31:35.297Z,4.14
2016-03-16T03:32:35.300Z,4.14
2016-03-16T03:33:35.318Z,4.17
2016-03-16T03:34:35.321Z,4.14
2016-03-16T03:35:35.339Z,4.19
2016-03-16T03:36:35.357Z,4.13
2016-03-16T03:37:35.376Z,4.14
2016-03-16T03:38:35.378Z,4.08
2016-03-16T03:39:35.412Z,4.14
2016-03-16T03:40:35.415Z,4.17
2016-03-16T03:41:35.433Z,4.12
2016-03-16T03:42:35.436Z,4.14
2016-03-16T03:43:35.454Z,4.14
2016-03-16T03:44:35.457Z,4.17
2016-03-16T03:45:35.475Z,4.14
2016-03-16T03:46:35.478Z,4.12
2016-03-16T03:47:35.512Z,4.12
2016-03-16T03:48:35.515Z,4.14
2016-03-16T03:49:35.533Z,4.14
2016-03-16T03:50:35.535Z,4.19
2016-03-16T03:51:35.554Z,4.2
2016-03-16T03:52:35.572Z,4.12
2016-03-16T03:53:35.575Z,4.12
2016-03-16T03:54:35.577Z,4.19
2016-03-16T03:55:35.595Z,4.14
2016-03-16T03:56:35.614Z,4.14
2016-03-16T03:57:35.632Z,4.2
2016-03-16T03:58:35.635Z,4.14
2016-03-16T03:59:35.653Z,4.17
2016-03-16T04:00:35.672Z,4.22
2016-03-16T04:01:35.690Z,4.19
2016-03-16T04:02:35.709Z,4.17
2016-03-16T04:03:35.711Z,4.22
2016-03-16T04:04:35.713Z,4.24
2016-03-16T04:05:35.732Z,4.23
2016-03-16T04:06:35.735Z,4.24
2016-03-16T04:07:35.752Z,4.22
2016-03-16T04:08:35.771Z,4.23
2016-03-16T04:09:35.774Z,4.2
2016-03-16T04:10:35.792Z,4.22
2016-03-16T04:11:35.827Z,4.2
2016-03-16T04:12:35.813Z,4.24
2016-03-16T04:13:35.863Z,4.24
2016-03-16T04:14:35.849Z,4.24
2016-03-16T04:15:35.868Z,4.23
2016-03-16T04:16:35.871Z,4.23
2016-03-16T04:17:35.889Z,4.17
2016-03-16T04:18:35.892Z,4.24
2016-03-16T04:19:35.910Z,4.31
2016-03-16T04:20:35.929Z,4.24
2016-03-16T04:21:35.931Z,4.22
2016-03-16T04:22:35.950Z,4.2
2016-03-16T04:23:35.968Z,4.31
2016-03-16T04:24:35.970Z,4.26
2016-03-16T04:25:35.989Z,4.22
2016-03-16T04:26:36.007Z,4.19
2016-03-16T04:27:36.010Z,4.23
2016-03-16T04:28:36.028Z,4.22
2016-03-16T04:29:36.047Z,4.22
2016-03-16T04:30:36.065Z,4.3
2016-03-16T04:31:36.053Z,4.26
2016-03-16T04:32:36.070Z,4.23
2016-03-16T04:33:36.104Z,4.23
2016-03-16T04:34:36.107Z,4.3
2016-03-16T04:35:36.109Z,4.23
2016-03-16T04:36:36.128Z,4.23
2016-03-16T04:37:36.130Z,4.19
2016-03-16T04:38:36.165Z,4.24
2016-03-16T04:39:36.183Z,4.17
2016-03-16T04:40:36.202Z,4.26
2016-03-16T04:41:36.204Z,4.26
2016-03-16T04:42:36.191Z,4.2
2016-03-16T04:43:36.225Z,4.17
2016-03-16T04:44:36.228Z,4.2
2016-03-16T04:45:36.277Z,4.22
2016-03-16T04:46:36.264Z,4.17
2016-03-16T04:47:36.282Z,4.2
2016-03-16T04:48:36.301Z,4.2
2016-03-16T04:49:36.335Z,4.17
2016-03-16T04:50:36.307Z,4.31
2016-03-16T04:51:36.340Z,4.22
2016-03-16T04:52:36.327Z,4.2
2016-03-16T04:53:36.361Z,4.17
2016-03-16T04:54:36.364Z,4.24
2016-03-16T04:55:36.398Z,4.19
2016-03-16T04:56:36.401Z,4.31
2016-03-16T04:57:36.418Z,4.26
2016-03-16T04:58:36.421Z,4.28
2016-03-16T04:59:36.424Z,4.3
2016-03-16T05:00:36.458Z,4.28
2016-03-16T05:01:36.476Z,4.23
2016-03-16T05:02:36.323Z,4.26
2016-03-16T05:03:36.498Z,4.16
2016-03-16T05:04:36.500Z,4.24
2016-03-16T05:05:36.550Z,4.22
2016-03-16T05:06:36.507Z,4.23
2016-03-16T05:07:36.545Z,4.23
2016-03-16T05:08:36.532Z,4.22
2016-03-16T05:09:36.551Z,4.2
2016-03-16T05:10:36.569Z,4.23
2016-03-16T05:11:36.587Z,4.19
2016-03-16T05:12:36.605Z,4.2
2016-03-16T05:13:36.452Z,4.22
2016-03-16T05:14:36.611Z,4.2
2016-03-16T05:15:36.645Z,4.19
2016-03-16T05:16:36.633Z,4.2
2016-03-16T05:17:36.650Z,4.23
2016-03-16T05:18:36.684Z,4.23
2016-03-16T05:19:36.671Z,4.19
2016-03-16T05:20:36.705Z,4.24
2016-03-16T05:21:36.708Z,4.19
2016-03-16T05:22:36.741Z,4.24
2016-03-16T05:23:36.729Z,4.22
2016-03-16T05:24:36.763Z,4.22
2016-03-16T05:25:36.766Z,4.22
2016-03-16T05:26:36.785Z,4.19
2016-03-16T05:27:36.787Z,4.22
2016-03-16T05:28:36.836Z,4.22
2016-03-16T05:29:36.807Z,4.24
2016-03-16T05:30:36.654Z,4.16
2016-03-16T05:31:36.844Z,4.23
2016-03-16T05:33:36.865Z,4.19
2016-03-16T05:34:36.884Z,4.12
2016-03-16T05:35:36.886Z,4.12
2016-03-16T05:36:36.920Z,4.14
2016-03-16T05:37:36.923Z,4.14
2016-03-16T05:38:36.942Z,4.17
2016-03-16T05:39:36.945Z,4.13
2016-03-16T05:40:36.947Z,4.08
2016-03-16T05:41:36.996Z,4.19
2016-03-16T05:42:36.215Z,4.19
2016-03-16T05:43:37.017Z,4.02
2016-03-16T05:44:37.004Z,4.04
2016-03-16T05:45:37.038Z,4.1
2016-03-16T05:46:37.025Z,4.06
2016-03-16T05:47:37.058Z,4.13
2016-03-16T05:48:37.061Z,4.14
2016-03-16T05:49:37.080Z,4.19
2016-03-16T05:50:37.083Z,4.12
2016-03-16T05:51:37.086Z,4.13
2016-03-16T05:52:37.104Z,4.12
2016-03-16T05:53:37.107Z,4.06
2016-03-16T05:54:37.109Z,4.05
2016-03-16T05:55:37.158Z,4.01
2016-03-16T05:56:37.161Z,3.98
2016-03-16T05:57:37.164Z,3.86
2016-03-16T05:58:37.199Z,3.88
2016-03-16T05:59:37.202Z,3.86
2016-03-16T06:00:37.219Z,3.74
2016-03-16T06:01:37.238Z,3.73
2016-03-16T06:02:37.241Z,3.68
2016-03-16T06:03:37.243Z,3.69
2016-03-16T06:04:37.277Z,3.77
2016-03-16T06:05:37.279Z,3.7
2016-03-16T06:06:37.282Z,3.66
2016-03-16T06:07:37.300Z,3.7
2016-03-16T06:08:37.318Z,3.63
2016-03-16T06:09:37.337Z,3.59
2016-03-16T06:10:37.339Z,3.6
2016-03-16T06:11:37.359Z,3.55
2016-03-16T06:12:37.376Z,3.55
2016-03-16T06:13:37.411Z,3.56
2016-03-16T06:14:37.367Z,3.58
2016-03-16T06:15:37.416Z,3.6
2016-03-16T06:16:37.450Z,3.6
2016-03-16T06:17:37.421Z,3.58
2016-03-16T06:18:37.455Z,3.62
2016-03-16T06:19:37.458Z,3.58
2016-03-16T06:20:37.475Z,3.59
2016-03-16T06:21:37.463Z,3.73
2016-03-16T06:22:37.528Z,3.59
2016-03-16T06:23:37.499Z,3.63
2016-03-16T06:24:37.534Z,3.59
2016-03-16T06:25:37.521Z,3.59
2016-03-16T06:26:37.555Z,3.62
2016-03-16T06:27:37.558Z,3.66
2016-03-16T06:28:37.592Z,3.63
2016-03-16T06:29:37.578Z,3.62
2016-03-16T06:30:37.581Z,3.7
2016-03-16T06:31:37.599Z,3.63
2016-03-16T06:32:37.649Z,3.7
2016-03-16T06:33:37.636Z,3.76
2016-03-16T06:34:37.670Z,3.68
2016-03-16T06:35:37.657Z,3.7
2016-03-16T06:36:37.675Z,3.76
2016-03-16T06:37:36.940Z,3.7
2016-03-16T06:38:37.679Z,3.69
2016-03-16T06:39:37.743Z,3.59
2016-03-16T06:40:37.698Z,3.55
2016-03-16T06:41:37.733Z,3.51
2016-03-16T06:42:37.736Z,3.48
2016-03-16T06:43:37.753Z,3.53
2016-03-16T06:44:37.757Z,3.6
2016-03-16T06:45:37.822Z,3.58
2016-03-16T06:46:37.825Z,3.62
2016-03-16T06:47:37.640Z,3.76
2016-03-16T06:48:37.830Z,3.77
2016-03-16T06:49:37.833Z,3.77
2016-03-16T06:50:37.835Z,4.01
2016-03-16T06:51:37.869Z,3.96
2016-03-16T06:52:37.872Z,4.13
2016-03-16T06:53:37.891Z,4.17
2016-03-16T06:54:37.894Z,4.17
2016-03-16T06:55:37.911Z,4.35
2016-03-16T06:56:37.914Z,4.38
2016-03-16T06:57:37.947Z,4.31
2016-03-16T06:58:37.966Z,4.28
2016-03-16T06:59:37.968Z,4.31
2016-03-16T07:00:37.987Z,4.38
2016-03-16T07:01:37.990Z,4.34
2016-03-16T07:02:37.993Z,4.34
2016-03-16T07:03:38.011Z,4.35
2016-03-16T07:04:38.014Z,4.32
2016-03-16T07:05:38.032Z,4.34
2016-03-16T07:06:37.879Z,4.37
2016-03-16T07:07:38.069Z,4.35
2016-03-16T07:08:38.071Z,4.45
2016-03-16T07:09:38.090Z,4.44
2016-03-16T07:10:38.107Z,4.41
2016-03-16T07:11:38.126Z,4.52
2016-03-16T07:12:38.144Z,4.55
2016-03-16T07:13:38.147Z,4.58
2016-03-16T07:14:38.150Z,4.66
2016-03-16T07:15:38.167Z,4.66
2016-03-16T07:16:38.186Z,4.71
2016-03-16T07:17:38.205Z,4.75
2016-03-16T07:18:38.192Z,4.8
2016-03-16T07:19:38.226Z,4.71
2016-03-16T07:20:38.244Z,4.74
2016-03-16T07:21:38.247Z,4.67
2016-03-16T07:22:38.264Z,4.56
2016-03-16T07:23:38.267Z,4.4
2016-03-16T07:24:38.286Z,4.35
2016-03-16T07:25:38.305Z,4.37
2016-03-16T07:26:38.308Z,4.28
2016-03-16T07:27:38.358Z,4.26
2016-03-16T07:28:38.328Z,4.31
2016-03-16T07:29:38.347Z,4.22
2016-03-16T07:30:38.349Z,4.34
2016-03-16T07:31:38.383Z,4.34
2016-03-16T07:32:38.370Z,4.37
2016-03-16T07:33:38.388Z,4.41
2016-03-16T07:34:38.407Z,4.56
2016-03-16T07:35:38.518Z,4.74
2016-03-16T07:36:38.443Z,4.87
2016-03-16T07:37:38.524Z,4.96
2016-03-16T07:38:38.480Z,5.02
2016-03-16T07:39:38.483Z,5.17
2016-03-16T07:40:38.517Z,5.12
2016-03-16T07:41:38.504Z,5.15
2016-03-16T07:42:38.522Z,5.07
2016-03-16T07:43:38.571Z,4.97
2016-03-16T07:44:38.573Z,5.02
2016-03-16T07:45:38.561Z,4.94
2016-03-16T07:46:38.564Z,4.97
2016-03-16T07:47:38.644Z,4.94
2016-03-16T07:48:38.647Z,4.92
2016-03-16T07:49:38.666Z,4.89
2016-03-16T07:50:38.669Z,4.93
2016-03-16T07:51:38.640Z,4.94
2016-03-16T07:52:38.705Z,5.07
2016-03-16T07:53:38.708Z,4.96
2016-03-16T07:54:38.710Z,5.02
2016-03-16T07:55:38.713Z,5.07
2016-03-16T07:56:38.731Z,5
2016-03-16T07:57:38.734Z,5.05
2016-03-16T07:58:38.722Z,5
2016-03-16T07:59:38.740Z,4.99
2016-03-16T08:00:38.758Z,4.94
2016-03-16T08:01:38.792Z,4.9
2016-03-16T08:02:38.779Z,4.93
2016-03-16T08:03:38.813Z,4.94
2016-03-16T08:04:38.799Z,4.94
2016-03-16T08:05:38.849Z,4.87
2016-03-16T08:06:38.848Z,4.94
2016-03-16T08:07:38.851Z,4.89
2016-03-16T08:08:38.870Z,4.87
2016-03-16T08:09:38.903Z,4.94
2016-03-16T08:10:38.891Z,5.02
2016-03-16T08:11:38.908Z,5.15
2016-03-16T08:12:38.927Z,5.38
2016-03-16T08:13:38.930Z,5.53
2016-03-16T08:14:38.182Z,5.66
2016-03-16T08:15:38.982Z,5.84
2016-03-16T08:16:38.969Z,5.89
2016-03-16T08:17:39.003Z,5.97
2016-03-16T08:18:38.224Z,6.08
2016-03-16T08:19:39.024Z,6.05
2016-03-16T08:20:39.027Z,6.26
2016-03-16T08:21:39.046Z,6.16
2016-03-16T08:22:39.063Z,6.17
2016-03-16T08:23:39.065Z,6.2
2016-03-16T08:24:39.068Z,6.33
2016-03-16T08:25:39.087Z,6.27
2016-03-16T08:26:39.105Z,6.24
2016-03-16T08:27:39.124Z,6.07
2016-03-16T08:28:39.126Z,6.05
2016-03-16T08:29:39.145Z,5.93
2016-03-16T08:30:39.163Z,5.87
2016-03-16T08:31:39.165Z,5.68
2016-03-16T08:32:39.184Z,5.64
2016-03-16T08:33:39.046Z,5.54
2016-03-16T08:34:39.220Z,5.51
2016-03-16T08:35:39.239Z,5.43
2016-03-16T08:36:39.257Z,5.43
2016-03-16T08:37:39.275Z,5.36
2016-03-16T08:38:39.262Z,5.38
2016-03-16T08:39:39.312Z,5.47
2016-03-16T08:40:39.299Z,5.56
2016-03-16T08:41:39.333Z,5.66
2016-03-16T08:42:39.319Z,5.82
2016-03-16T08:43:39.338Z,5.89
2016-03-16T08:44:39.357Z,6.17
2016-03-16T08:45:39.375Z,6.3
2016-03-16T08:46:39.377Z,6.41
2016-03-16T08:47:39.397Z,6.39
2016-03-16T08:48:39.399Z,6.49
2016-03-16T08:49:39.402Z,6.46
2016-03-16T08:50:39.451Z,6.46
2016-03-16T08:51:39.454Z,6.6
2016-03-16T08:52:39.472Z,6.67
2016-03-16T08:53:39.521Z,6.74
2016-03-16T08:54:39.509Z,6.63
2016-03-16T08:55:39.527Z,6.74
2016-03-16T08:56:39.530Z,6.67
2016-03-16T08:57:39.563Z,6.67
2016-03-16T08:58:39.535Z,6.6
2016-03-16T08:59:39.569Z,6.48
2016-03-16T09:00:39.634Z,6.56
2016-03-16T09:01:39.637Z,6.46
2016-03-16T09:02:39.640Z,6.41
2016-03-16T09:03:39.642Z,6.41
2016-03-16T09:04:39.661Z,6.36
2016-03-16T09:05:39.709Z,6.33
2016-03-16T09:06:39.718Z,6.36
2016-03-16T09:07:39.736Z,6.38
2016-03-16T09:08:39.692Z,6.35
2016-03-16T09:09:39.773Z,6.26
2016-03-16T09:10:39.744Z,6.28
2016-03-16T09:11:39.794Z,6.35
2016-03-16T09:12:39.765Z,6.3
2016-03-16T09:13:39.799Z,6.2
2016-03-16T09:14:39.802Z,6.24
2016-03-16T09:15:39.804Z,6.2
2016-03-16T09:16:39.807Z,6.24
2016-03-16T09:17:39.810Z,6.07
2016-03-16T09:18:39.843Z,6.05
2016-03-16T09:19:39.846Z,6.07
2016-03-16T09:20:39.992Z,5.98
2016-03-16T09:21:39.870Z,6.05
2016-03-16T09:22:39.904Z,6.02
2016-03-16T09:23:39.891Z,6.09
2016-03-16T09:24:39.926Z,6.11
2016-03-16T09:25:39.883Z,6.19
2016-03-16T09:26:39.939Z,6.31
2016-03-16T09:27:39.950Z,6.27
2016-03-16T09:28:39.924Z,6.26
2016-03-16T09:29:40.470Z,6.14
2016-03-16T09:30:41.123Z,6.16
2016-03-16T09:31:39.933Z,6.11
2016-03-16T09:32:39.947Z,6.12
2016-03-16T09:33:39.945Z,6.11
2016-03-16T09:34:39.958Z,6.08
2016-03-16T09:35:39.973Z,6.12
2016-03-16T09:36:39.974Z,6.05
2016-03-16T09:37:39.990Z,6.14
2016-03-16T09:38:40.006Z,6.09
2016-03-16T09:39:40.022Z,5.93
2016-03-16T09:40:40.023Z,5.98
2016-03-16T09:41:40.057Z,5.9
2016-03-16T09:42:40.059Z,5.87
2016-03-16T09:43:40.061Z,5.87
2016-03-16T09:44:40.093Z,5.86
2016-03-16T09:45:40.128Z,5.9
2016-03-16T09:46:40.115Z,5.82
2016-03-16T09:47:40.133Z,5.87
2016-03-16T09:48:40.136Z,5.82
2016-03-16T09:49:40.185Z,5.89
2016-03-16T09:50:40.172Z,5.89
2016-03-16T09:51:40.190Z,5.82
2016-03-16T09:52:40.192Z,5.76
2016-03-16T09:53:40.211Z,5.71
2016-03-16T09:54:40.214Z,5.66
2016-03-16T09:55:40.232Z,5.64
2016-03-16T09:56:40.251Z,5.65
2016-03-16T09:57:40.268Z,5.66
2016-03-16T09:58:40.288Z,5.54
2016-03-16T09:59:40.290Z,5.51
2016-03-16T10:00:40.308Z,5.57
2016-03-16T10:01:40.295Z,5.57
2016-03-16T10:02:40.345Z,5.61
2016-03-16T10:03:40.347Z,5.64
2016-03-16T10:04:40.349Z,5.59
2016-03-16T10:05:40.368Z,5.68
2016-03-16T10:06:40.418Z,5.68
2016-03-16T10:07:40.389Z,5.69
2016-03-16T10:08:40.440Z,5.76
2016-03-16T10:09:40.442Z,5.87
2016-03-16T10:10:40.444Z,5.97
2016-03-16T10:11:40.448Z,6.11
2016-03-16T10:12:40.481Z,6.09
2016-03-16T10:13:40.484Z,6.26
2016-03-16T10:14:40.533Z,6.26
2016-03-16T10:15:40.537Z,6.35
2016-03-16T10:16:40.554Z,6.41
2016-03-16T10:17:40.542Z,6.41
2016-03-16T10:18:40.545Z,6.42
2016-03-16T10:19:40.578Z,6.52
2016-03-16T10:20:40.550Z,6.44
2016-03-16T10:21:40.614Z,6.49
2016-03-16T10:22:40.634Z,6.44
2016-03-16T10:23:40.651Z,6.48
2016-03-16T10:24:40.623Z,6.62
2016-03-16T10:25:40.641Z,6.59
2016-03-16T10:26:40.675Z,6.62
2016-03-16T10:27:40.678Z,6.45
2016-03-16T10:28:40.727Z,6.48
2016-03-16T10:29:40.777Z,6.6
2016-03-16T10:30:40.780Z,6.49
2016-03-16T10:31:40.751Z,6.49
2016-03-16T10:32:40.769Z,6.48
2016-03-16T10:33:40.850Z,6.46
2016-03-16T10:34:40.774Z,6.46
2016-03-16T10:35:40.793Z,6.46
2016-03-16T10:36:40.811Z,6.52
2016-03-16T10:37:40.830Z,6.49
2016-03-16T10:38:40.832Z,6.45
2016-03-16T10:39:40.851Z,6.54
2016-03-16T10:40:40.853Z,6.51
2016-03-16T10:41:40.856Z,6.63
2016-03-16T10:42:40.906Z,6.44
2016-03-16T10:43:40.908Z,6.51
2016-03-16T10:44:40.973Z,6.62
2016-03-16T10:45:40.929Z,6.63
2016-03-16T10:46:40.962Z,6.6
2016-03-16T10:47:40.950Z,6.51
2016-03-16T10:48:40.984Z,6.62
2016-03-16T10:49:40.971Z,6.62
2016-03-16T10:50:41.005Z,6.72
2016-03-16T10:51:41.009Z,6.74
2016-03-16T10:52:41.011Z,6.63
2016-03-16T10:53:41.045Z,6.7
2016-03-16T10:54:41.078Z,6.74
2016-03-16T10:55:41.066Z,6.78
2016-03-16T10:56:41.084Z,6.92
2016-03-16T10:57:41.134Z,6.97
2016-03-16T10:58:41.120Z,6.96
2016-03-16T10:59:41.139Z,7.11
2016-03-16T11:00:41.157Z,7.13
2016-03-16T11:01:41.145Z,7.29
2016-03-16T11:02:41.163Z,7.38
2016-03-16T11:03:41.166Z,7.35
2016-03-16T11:04:41.200Z,7.29
2016-03-16T11:05:41.202Z,7.32
2016-03-16T11:06:41.221Z,7.21
2016-03-16T11:07:41.238Z,7.31
2016-03-16T11:08:41.241Z,7.31
2016-03-16T11:09:41.275Z,7.32
2016-03-16T11:10:41.294Z,7.29
2016-03-16T11:11:41.312Z,7.42
2016-03-16T11:12:41.315Z,7.54
2016-03-16T11:13:41.333Z,7.6
2016-03-16T11:14:41.351Z,7.72
2016-03-16T11:15:41.370Z,7.67
2016-03-16T11:16:41.388Z,7.63
2016-03-16T11:17:41.391Z,7.5
2016-03-16T11:18:41.393Z,7.6
2016-03-16T11:19:41.427Z,7.4
2016-03-16T11:20:41.415Z,7.33
2016-03-16T11:21:41.448Z,7.15
2016-03-16T11:22:41.451Z,7.18
2016-03-16T11:23:41.484Z,7.28
2016-03-16T11:24:41.488Z,7.2
2016-03-16T11:25:41.506Z,7.24
2016-03-16T11:26:41.524Z,7.18
2016-03-16T11:27:41.542Z,7.21
2016-03-16T11:28:41.545Z,7.14
2016-03-16T11:29:41.564Z,7.2
2016-03-16T11:30:41.582Z,7.25
2016-03-16T11:31:41.617Z,7.24
2016-03-16T11:32:41.619Z,7.18
2016-03-16T11:33:41.637Z,7.18
2016-03-16T11:34:41.624Z,7.1
2016-03-16T11:35:41.657Z,7.05
2016-03-16T11:36:41.661Z,7.06
2016-03-16T11:37:41.663Z,7.03
2016-03-16T11:38:41.697Z,7.07
2016-03-16T11:39:41.715Z,7.1
2016-03-16T11:40:41.734Z,7.07
2016-03-16T11:41:41.736Z,7.1
2016-03-16T11:42:41.754Z,7.1
2016-03-16T11:43:41.774Z,7
2016-03-16T11:44:41.776Z,6.96
2016-03-16T11:45:41.794Z,7
2016-03-16T11:46:41.812Z,6.96
2016-03-16T11:47:41.893Z,6.96
2016-03-16T11:48:41.834Z,7.1
2016-03-16T11:49:41.852Z,7.06
2016-03-16T11:50:41.917Z,7.15
2016-03-16T11:51:41.920Z,7.33
2016-03-16T11:52:41.954Z,7.43
2016-03-16T11:53:41.940Z,7.53
2016-03-16T11:54:41.928Z,7.47
2016-03-16T11:55:41.977Z,7.42
2016-03-16T11:56:41.965Z,7.48
2016-03-16T11:57:41.967Z,7.5
2016-03-16T11:58:41.986Z,7.6
2016-03-16T11:59:42.003Z,7.63
2016-03-16T12:00:41.991Z,7.69
2016-03-16T12:01:42.025Z,7.79
2016-03-16T12:02:42.042Z,7.76
2016-03-16T12:03:42.061Z,7.69
2016-03-16T12:04:42.095Z,7.82
2016-03-16T12:05:42.114Z,7.85
2016-03-16T12:06:42.085Z,7.94
2016-03-16T12:07:42.119Z,7.98
2016-03-16T12:08:42.122Z,8
2016-03-16T12:09:42.140Z,8
2016-03-16T12:10:42.174Z,7.93
2016-03-16T12:11:42.177Z,7.83
2016-03-16T12:12:42.194Z,7.63
2016-03-16T12:13:42.213Z,7.7
2016-03-16T12:14:42.216Z,7.77
2016-03-16T12:15:42.234Z,7.72
2016-03-16T12:16:42.268Z,7.85
2016-03-16T12:17:42.271Z,7.82
2016-03-16T12:18:42.290Z,7.76
2016-03-16T12:19:42.323Z,7.8
2016-03-16T12:20:42.341Z,7.85
2016-03-16T12:21:42.329Z,7.94
2016-03-16T12:22:42.331Z,8.01
2016-03-16T12:23:42.365Z,8.08
2016-03-16T12:24:42.367Z,8.2
2016-03-16T12:25:42.386Z,8.34
2016-03-16T12:26:42.389Z,8.42
2016-03-16T12:27:42.407Z,8.58
2016-03-16T12:28:42.425Z,8.63
2016-03-16T12:29:42.459Z,8.58
2016-03-16T12:30:42.462Z,8.64
2016-03-16T12:31:42.496Z,8.73
2016-03-16T12:32:42.483Z,8.79
2016-03-16T12:33:42.501Z,8.78
2016-03-16T12:34:42.520Z,8.88
2016-03-16T12:35:42.553Z,8.89
2016-03-16T12:36:42.541Z,8.94
2016-03-16T12:37:42.574Z,9
2016-03-16T12:38:43.031Z,8.94
2016-03-16T12:39:42.455Z,8.87
2016-03-16T12:40:42.614Z,8.74
2016-03-16T12:41:42.647Z,8.78
2016-03-16T12:42:42.650Z,8.78
2016-03-16T12:43:42.700Z,8.73
2016-03-16T12:44:42.672Z,8.78
2016-03-16T12:45:42.705Z,8.76
2016-03-16T12:46:42.707Z,8.67
2016-03-16T12:47:42.805Z,8.76
2016-03-16T12:48:42.776Z,8.74
2016-03-16T12:49:42.779Z,8.66
2016-03-16T12:50:42.765Z,8.79
2016-03-16T12:51:42.832Z,8.73
2016-03-16T12:52:42.787Z,8.71
2016-03-16T12:53:42.837Z,8.97
2016-03-16T12:54:42.839Z,9.16
2016-03-16T12:55:42.873Z,9.43
2016-03-16T12:56:42.876Z,9.48
2016-03-16T12:57:42.863Z,9.56
2016-03-16T12:58:42.897Z,9.48
2016-03-16T12:59:42.915Z,9.51
2016-03-16T13:00:42.934Z,9.39
2016-03-16T13:01:42.952Z,9.39
2016-03-16T13:02:42.970Z,9.29
2016-03-16T13:03:42.972Z,9.28
2016-03-16T13:04:42.914Z,9.29
2016-03-16T13:05:43.025Z,9.28
2016-03-16T13:06:43.028Z,9.43
2016-03-16T13:07:43.046Z,9.4
2016-03-16T13:08:43.064Z,9.54
2016-03-16T13:09:43.083Z,9.56
2016-03-16T13:10:43.069Z,9.55
2016-03-16T13:11:43.119Z,9.48
2016-03-16T13:12:43.105Z,9.47
2016-03-16T13:13:43.141Z,9.5
2016-03-16T13:14:43.143Z,9.5
2016-03-16T13:15:43.177Z,9.51
2016-03-16T13:16:43.195Z,9.56
2016-03-16T13:17:43.199Z,9.64
2016-03-16T13:18:43.232Z,9.48
2016-03-16T13:19:43.234Z,9.48
2016-03-16T13:20:43.268Z,9.5
2016-03-16T13:21:43.270Z,9.26
2016-03-16T13:22:43.290Z,9.19